createdAt,value
2023-01-17T00:01:34.018Z,98363.72
2023-01-17T00:04:20.387Z,98360.31
2023-01-17T00:07:05.262Z,98357.81
2023-01-17T00:09:50.243Z,98367.53
2023-01-17T00:12:16.764Z,98377.88
2023-01-17T00:14:43.341Z,98382.34
2023-01-17T00:17:09.731Z,98383.25
2023-01-17T00:19:54.866Z,98388.41
2023-01-17T00:22:43.111Z,98379.97
2023-01-17T00:25:35.891Z,98386.16
2023-01-17T00:28:02.663Z,98388.75
2023-01-17T00:30:29.591Z,98401.66
2023-01-17T00:32:56.331Z,98400.84
2023-01-17T00:35:24.697Z,98401.78
2023-01-17T00:38:21.444Z,98406.44
2023-01-17T00:40:49.003Z,98408.28
2023-01-17T00:43:36.810Z,98428.13
2023-01-17T00:46:22.143Z,98426.47
2023-01-17T00:49:07.024Z,98432.06
2023-01-17T00:51:53.292Z,98447.13
2023-01-17T00:54:38.660Z,98454.88
2023-01-17T00:57:24.467Z,98459.81
2023-01-17T01:00:09.659Z,98461.16
2023-01-17T01:02:55.455Z,98458.66
2023-01-17T01:05:41.494Z,98461.78
2023-01-17T01:08:41.070Z,98462.78
2023-01-17T01:11:28.458Z,98449.06
2023-01-17T01:14:14.968Z,98450.63
2023-01-17T01:17:00.223Z,98464.16
2023-01-17T01:19:45.592Z,98470.97
2023-01-17T01:22:31.398Z,98477.75
2023-01-17T01:25:16.679Z,98481.06
2023-01-17T01:28:02.245Z,98488.81
2023-01-17T01:30:47.082Z,98494.91
2023-01-17T01:33:20.952Z,98499.88
2023-01-17T01:35:55.044Z,98498.94
2023-01-17T01:38:23.717Z,98503.16
2023-01-17T01:40:53.506Z,98497.06
2023-01-17T01:43:41.639Z,98505.59
2023-01-17T01:46:11.524Z,98513.06
2023-01-17T01:48:48.731Z,98503.25
2023-01-17T01:51:21.590Z,98507.97
2023-01-17T01:53:51.129Z,98511.88
2023-01-17T01:56:19.989Z,98513.19
2023-01-17T01:58:50.521Z,98519.44
2023-01-17T02:01:17.966Z,98524.06
2023-01-17T02:03:45.832Z,98530.53
2023-01-17T02:06:35.553Z,98532.47
2023-01-17T02:09:07.072Z,98540.91
2023-01-17T02:11:36.377Z,98555.34
2023-01-17T02:14:02.885Z,98558.69
2023-01-17T02:16:43.892Z,98568.81
2023-01-17T02:19:28.969Z,98583.16
2023-01-17T02:21:58.372Z,98593.34
2023-01-17T02:24:59.417Z,98592.72
2023-01-17T02:27:34.961Z,98591.25
2023-01-17T02:30:26.417Z,98594.31
2023-01-17T02:33:11.603Z,98595.13
2023-01-17T02:36:04.151Z,98591.63
2023-01-17T02:38:51.226Z,98587.28
2023-01-17T02:41:43.988Z,98589.97
2023-01-17T02:44:15.756Z,98586.66
2023-01-17T02:46:52.307Z,98591.78
2023-01-17T02:49:22.247Z,98589.41
2023-01-17T02:52:16.748Z,98597.88
2023-01-17T02:55:10.938Z,98603.97
2023-01-17T02:58:02.583Z,98601.47
2023-01-17T03:00:44.462Z,98598.13
2023-01-17T03:03:27.391Z,98609.31
2023-01-17T03:06:11.615Z,98609.47
2023-01-17T03:08:47.427Z,98608.84
2023-01-17T03:11:14.991Z,98602.88
2023-01-17T03:13:42.199Z,98615.81
2023-01-17T03:16:16.649Z,98615.91
2023-01-17T03:18:43.108Z,98621.97
2023-01-17T03:21:09.679Z,98626.13
2023-01-17T03:23:36.410Z,98620.16
2023-01-17T03:26:02.822Z,98620.91
2023-01-17T03:28:29.371Z,98630.28
2023-01-17T03:30:55.923Z,98628.53
2023-01-17T03:33:23.534Z,98634.41
2023-01-17T03:35:49.997Z,98632.50
2023-01-17T03:38:16.446Z,98636.06
2023-01-17T03:40:42.898Z,98632.66
2023-01-17T03:43:09.366Z,98639.75
2023-01-17T03:45:35.877Z,98644.25
2023-01-17T03:48:02.334Z,98642.94
2023-01-17T03:50:29.705Z,98647.53
2023-01-17T03:52:56.120Z,98649.94
2023-01-17T03:55:22.752Z,98653.38
2023-01-17T03:57:49.157Z,98657.06
2023-01-17T04:00:16.150Z,98657.22
2023-01-17T04:02:42.610Z,98656.81
2023-01-17T04:05:09.346Z,98654.59
2023-01-17T04:07:35.778Z,98655.59
2023-01-17T04:10:02.304Z,98662.91
2023-01-17T04:12:28.798Z,98665.91
2023-01-17T04:14:55.321Z,98666.25
2023-01-17T04:17:21.782Z,98674.41
2023-01-17T04:19:48.255Z,98677.25
2023-01-17T04:22:14.728Z,98683.22
2023-01-17T04:24:41.167Z,98683.69
2023-01-17T04:27:07.898Z,98680.88
2023-01-17T04:29:34.535Z,98680.88
2023-01-17T04:32:00.920Z,98675.06
2023-01-17T04:34:27.345Z,98673.41
2023-01-17T04:36:53.811Z,98669.16
2023-01-17T04:39:20.333Z,98670.09
2023-01-17T04:41:46.727Z,98665.94
2023-01-17T04:44:13.189Z,98660.06
2023-01-17T04:46:39.621Z,98657.66
2023-01-17T04:49:06.174Z,98663.63
2023-01-17T04:51:32.679Z,98662.78
2023-01-17T04:53:59.150Z,98651.69
2023-01-17T04:56:27.308Z,98664.44
2023-01-17T04:58:56.239Z,98667.84
2023-01-17T05:01:22.721Z,98662.69
2023-01-17T05:03:49.369Z,98665.94
2023-01-17T05:06:16.111Z,98670.84
2023-01-17T05:08:42.569Z,98664.94
2023-01-17T05:11:11.274Z,98666.84
2023-01-17T05:13:38.101Z,98673.09
2023-01-17T05:16:04.942Z,98674.91
2023-01-17T05:18:31.442Z,98677.06
2023-01-17T05:21:02.797Z,98682.44
2023-01-17T05:23:32.811Z,98677.41
2023-01-17T05:26:00.168Z,98685.38
2023-01-17T05:28:27.600Z,98695.81
2023-01-17T05:30:54.460Z,98687.50
2023-01-17T05:33:21.453Z,98685.84
2023-01-17T05:35:48.085Z,98685.19
2023-01-17T05:38:14.664Z,98685.25
2023-01-17T05:40:41.221Z,98689.72
2023-01-17T05:43:08.886Z,98695.78
2023-01-17T05:45:35.702Z,98693.31
2023-01-17T05:48:06.697Z,98693.47
2023-01-17T05:50:37.365Z,98705.56
2023-01-17T05:53:12.597Z,98709.06
2023-01-17T05:55:39.979Z,98707.47
2023-01-17T05:58:08.824Z,98716.00
2023-01-17T06:00:35.670Z,98725.34
2023-01-17T06:03:02.248Z,98717.66
2023-01-17T06:05:36.967Z,98717.50
2023-01-17T06:08:06.182Z,98718.16
2023-01-17T06:10:32.818Z,98724.97
2023-01-17T06:13:08.585Z,98735.94
2023-01-17T06:15:48.822Z,98742.41
2023-01-17T06:18:17.325Z,98733.47
2023-01-17T06:20:44.336Z,98733.13
2023-01-17T06:23:14.466Z,98743.09
2023-01-17T06:25:44.488Z,98754.47
2023-01-17T06:28:15.641Z,98745.50
2023-01-17T06:30:43.780Z,98745.28
2023-01-17T06:33:11.439Z,98744.34
2023-01-17T06:35:40.191Z,98725.59
2023-01-17T06:38:07.657Z,98726.66
2023-01-17T06:40:34.343Z,98733.72
2023-01-17T06:43:01.852Z,98727.16
2023-01-17T06:45:30.025Z,98723.19
2023-01-17T06:47:59.189Z,98725.09
2023-01-17T06:50:26.188Z,98733.88
2023-01-17T06:53:00.874Z,98734.22
2023-01-17T06:55:29.333Z,98737.00
2023-01-17T06:57:57.716Z,98738.75
2023-01-17T07:00:24.389Z,98744.97
2023-01-17T07:02:53.203Z,98742.47
2023-01-17T07:05:20.112Z,98748.63
2023-01-17T07:07:47.558Z,98748.78
2023-01-17T07:10:15.719Z,98747.28
2023-01-17T07:12:42.593Z,98753.31
2023-01-17T07:15:09.790Z,98756.81
2023-01-17T07:17:36.374Z,98751.81
2023-01-17T07:20:02.905Z,98745.19
2023-01-17T07:22:29.581Z,98751.25
2023-01-17T07:24:58.683Z,98754.69
2023-01-17T07:27:27.694Z,98754.84
2023-01-17T07:29:54.431Z,98754.19
2023-01-17T07:32:22.012Z,98755.25
2023-01-17T07:34:48.636Z,98763.06
2023-01-17T07:37:16.276Z,98758.06
2023-01-17T07:39:42.732Z,98755.56
2023-01-17T07:42:09.376Z,98762.53
2023-01-17T07:44:36.106Z,98755.72
2023-01-17T07:47:04.227Z,98766.81
2023-01-17T07:49:30.911Z,98771.22
2023-01-17T07:51:57.466Z,98765.31
2023-01-17T07:54:24.649Z,98766.13
2023-01-17T07:56:52.253Z,98770.28
2023-01-17T07:59:18.921Z,98774.59
2023-01-17T08:01:45.571Z,98774.59
2023-01-17T08:04:14.102Z,98765.31
2023-01-17T08:06:47.436Z,98774.75
2023-01-17T08:09:16.652Z,98763.66
2023-01-17T08:11:43.130Z,98771.41
2023-01-17T08:14:09.739Z,98771.59
2023-01-17T08:16:37.528Z,98769.09
2023-01-17T08:19:04.216Z,98771.66
2023-01-17T08:21:30.813Z,98775.88
2023-01-17T08:23:57.291Z,98775.00
2023-01-17T08:26:23.880Z,98780.97
2023-01-17T08:29:00.360Z,98785.13
2023-01-17T08:31:29.601Z,98780.72
2023-01-17T08:33:56.710Z,98784.94
2023-01-17T08:36:25.791Z,98784.88
2023-01-17T08:38:52.861Z,98791.63
2023-01-17T08:41:23.768Z,98792.28
2023-01-17T08:43:51.724Z,98792.97
2023-01-17T08:46:18.488Z,98799.75
2023-01-17T08:48:45.685Z,98798.09
2023-01-17T08:51:12.317Z,98800.66
2023-01-17T08:53:38.934Z,98801.50
2023-01-17T08:56:05.905Z,98796.34
2023-01-17T08:58:33.179Z,98804.88
2023-01-17T09:01:02.409Z,98805.03
2023-01-17T09:03:30.192Z,98808.44
2023-01-17T09:06:07.149Z,98809.28
2023-01-17T09:08:34.539Z,98814.25
2023-01-17T09:11:08.700Z,98812.44
2023-01-17T09:13:36.088Z,98811.38
2023-01-17T09:16:03.560Z,98819.91
2023-01-17T09:18:30.983Z,98828.38
2023-01-17T09:20:59.320Z,98823.94
2023-01-17T09:23:30.140Z,98827.25
2023-01-17T09:25:59.405Z,98838.13
2023-01-17T09:28:27.341Z,98829.28
2023-01-17T09:30:55.036Z,98828.16
2023-01-17T09:33:23.214Z,98829.81
2023-01-17T09:42:21.208Z,98837.56
2023-01-17T09:44:52.639Z,98842.56
2023-01-17T09:47:31.674Z,98844.13
2023-01-17T09:50:15.215Z,98844.13
2023-01-17T09:52:42.309Z,98851.78
2023-01-17T09:55:19.088Z,98856.00
2023-01-17T09:58:10.783Z,98857.59
2023-01-17T10:00:41.239Z,98859.91
2023-01-17T10:03:23.273Z,98860.66
2023-01-17T10:06:17.224Z,98870.81
2023-01-17T10:08:58.862Z,98858.63
2023-01-17T10:11:38.031Z,98860.09
2023-01-17T10:14:21.421Z,98857.44
2023-01-17T10:16:48.532Z,98856.22
2023-01-17T10:19:27.615Z,98862.78
2023-01-17T10:22:15.665Z,98855.81
2023-01-17T10:25:04.163Z,98862.31
2023-01-17T10:27:35.304Z,98861.31
2023-01-17T10:30:05.030Z,98855.84
2023-01-17T10:32:33.530Z,98857.25
2023-01-17T10:35:15.836Z,98858.00
2023-01-17T10:37:45.877Z,98853.50
2023-01-17T10:40:34.525Z,98857.69
2023-01-17T10:43:10.056Z,98862.66
2023-01-17T10:45:43.672Z,98864.22
2023-01-17T10:48:24.170Z,98860.81
2023-01-17T10:51:12.625Z,98866.94
2023-01-17T10:53:54.867Z,98866.22
2023-01-17T10:56:27.282Z,98866.72
2023-01-17T10:59:25.010Z,98863.66
2023-01-17T11:01:52.292Z,98865.69
2023-01-17T11:04:23.674Z,98865.38
2023-01-17T11:07:15.787Z,98868.88
2023-01-17T11:09:50.471Z,98867.28
2023-01-17T11:12:44.908Z,98869.97
2023-01-17T11:15:11.673Z,98869.78
2023-01-17T11:17:53.316Z,98871.34
2023-01-17T11:20:42.975Z,98870.69
2023-01-17T11:23:21.197Z,98868.28
2023-01-17T11:26:00.337Z,98854.19
2023-01-17T11:28:32.362Z,98858.72
2023-01-17T11:31:24.597Z,98861.47
2023-01-17T11:34:06.275Z,98852.84
2023-01-17T11:36:33.962Z,98854.19
2023-01-17T11:39:26.019Z,98855.66
2023-01-17T11:41:52.963Z,98862.63
2023-01-17T11:44:32.855Z,98854.84
2023-01-17T11:47:16.886Z,98849.19
2023-01-17T11:49:46.646Z,98853.09
2023-01-17T11:52:34.290Z,98852.16
2023-01-17T11:55:01.067Z,98852.31
2023-01-17T11:57:31.316Z,98855.22
2023-01-17T12:00:16.377Z,98850.38
2023-01-17T12:03:06.137Z,98850.59
2023-01-17T12:05:48.357Z,98855.22
2023-01-17T12:08:31.861Z,98850.63
2023-01-17T12:11:35.966Z,98848.47
2023-01-17T12:14:26.114Z,98847.19
2023-01-17T12:17:17.401Z,98845.72
2023-01-17T12:20:01.054Z,98845.25
2023-01-17T12:22:46.271Z,98838.09
2023-01-17T12:25:24.611Z,98837.91
2023-01-17T12:28:05.556Z,98840.31
2023-01-17T12:30:43.841Z,98835.88
2023-01-17T12:33:19.805Z,98836.53
2023-01-17T12:35:58.779Z,98826.97
2023-01-17T12:38:39.303Z,98822.53
2023-01-17T12:41:19.232Z,98826.66
2023-01-17T12:43:46.239Z,98822.38
2023-01-17T12:46:29.409Z,98823.91
2023-01-17T12:49:22.300Z,98812.56
2023-01-17T12:51:54.914Z,98816.63
2023-01-17T12:54:31.516Z,98815.63
2023-01-17T12:57:28.060Z,98822.34
2023-01-17T12:59:58.692Z,98828.78
2023-01-17T13:02:50.444Z,98823.34
2023-01-17T13:05:38.636Z,98828.50
2023-01-17T13:08:20.927Z,98828.50
2023-01-17T13:10:57.888Z,98827.78
2023-01-17T13:13:26.918Z,98821.41
2023-01-17T13:16:14.663Z,98820.50
2023-01-17T13:18:49.217Z,98824.63
2023-01-17T13:21:33.027Z,98825.94
2023-01-17T13:24:00.138Z,98828.59
2023-01-17T13:26:52.789Z,98826.00
2023-01-17T13:29:24.952Z,98828.75
2023-01-17T13:32:08.618Z,98827.88
2023-01-17T13:35:03.172Z,98832.09
2023-01-17T13:37:35.959Z,98830.22
2023-01-17T13:40:21.133Z,98825.94
2023-01-17T13:42:59.905Z,98830.16
2023-01-17T13:45:30.187Z,98830.22
2023-01-17T13:48:22.885Z,98827.66
2023-01-17T13:50:53.015Z,98832.72
2023-01-17T13:53:46.786Z,98839.66
2023-01-17T13:56:19.527Z,98834.88
2023-01-17T13:58:58.462Z,98839.84
2023-01-17T14:01:25.335Z,98845.00
2023-01-17T14:03:52.576Z,98850.25
2023-01-17T14:06:47.859Z,98852.94
2023-01-17T14:09:20.657Z,98854.75
2023-01-17T14:12:06.061Z,98865.09
2023-01-17T14:14:42.000Z,98860.75
2023-01-17T14:17:36.731Z,98859.94
2023-01-17T14:20:09.060Z,98857.72
2023-01-17T14:22:38.091Z,98863.00
2023-01-17T14:25:17.444Z,98871.91
2023-01-17T14:27:51.159Z,98863.28
2023-01-17T14:30:18.075Z,98861.34
2023-01-17T14:33:05.792Z,98849.72
2023-01-17T14:35:34.012Z,98851.84
2023-01-17T14:38:05.427Z,98862.44
2023-01-17T14:40:34.350Z,98857.38
2023-01-17T14:43:09.379Z,98860.84
2023-01-17T14:45:36.689Z,98853.31
2023-01-17T14:48:07.163Z,98848.34
2023-01-17T14:50:39.339Z,98863.81
2023-01-17T14:53:12.709Z,98857.16
2023-01-17T14:55:48.300Z,98860.84
2023-01-17T14:58:19.615Z,98856.06
2023-01-17T15:00:49.857Z,98848.31
2023-01-17T15:03:17.179Z,98862.06
2023-01-17T15:05:47.322Z,98865.72
2023-01-17T15:08:18.850Z,98862.50
2023-01-17T15:11:07.544Z,98867.09
2023-01-17T15:13:44.208Z,98866.81
2023-01-17T15:16:25.713Z,98875.00
2023-01-17T15:18:55.117Z,98871.84
2023-01-17T15:21:43.702Z,98877.44
2023-01-17T15:24:19.757Z,98881.19
2023-01-17T15:26:46.891Z,98886.66
2023-01-17T15:29:25.405Z,98883.38
2023-01-17T15:32:00.235Z,98889.59
2023-01-17T15:34:28.753Z,98892.34
2023-01-17T15:37:00.175Z,98878.06
2023-01-17T15:39:30.248Z,98886.13
2023-01-17T15:41:59.650Z,98884.72
2023-01-17T15:44:48.173Z,98886.72
2023-01-17T15:47:35.471Z,98898.28
2023-01-17T15:50:30.090Z,98888.66
2023-01-17T15:53:06.577Z,98891.53
2023-01-17T15:55:34.461Z,98888.47
2023-01-17T15:58:02.218Z,98887.41
2023-01-17T16:00:38.549Z,98885.31
2023-01-17T16:03:31.956Z,98893.50
2023-01-17T16:06:45.408Z,98894.56
2023-01-17T16:09:24.400Z,98894.88
2023-01-17T16:11:50.994Z,98883.94
2023-01-17T16:14:18.069Z,98881.81
2023-01-17T16:16:54.401Z,98891.59
2023-01-17T16:19:21.463Z,98890.03
2023-01-17T16:21:48.489Z,98892.63
2023-01-17T16:24:15.225Z,98902.97
2023-01-17T16:26:41.985Z,98902.53
2023-01-17T16:29:10.188Z,98897.53
2023-01-17T16:31:37.291Z,98903.56
2023-01-17T16:34:10.147Z,98902.97
2023-01-17T16:36:36.864Z,98902.22
2023-01-17T16:39:03.541Z,98910.16
2023-01-17T16:41:30.050Z,98906.94
2023-01-17T16:44:06.244Z,98906.41
2023-01-17T16:46:33.210Z,98914.16
2023-01-17T16:49:01.011Z,98910.03
2023-01-17T16:51:27.657Z,98918.63
2023-01-17T16:53:54.333Z,98922.94
2023-01-17T16:56:21.183Z,98921.44
2023-01-17T16:58:47.810Z,98926.72
2023-01-17T17:01:17.656Z,98921.72
2023-01-17T17:03:44.976Z,98926.88
2023-01-17T17:06:12.689Z,98935.50
2023-01-17T17:08:39.949Z,98936.41
2023-01-17T17:11:14.505Z,98938.34
2023-01-17T17:13:43.363Z,98943.72
2023-01-17T17:16:19.463Z,98942.94
2023-01-17T17:18:47.560Z,98945.75
2023-01-17T17:21:14.721Z,98958.75
2023-01-17T17:23:41.613Z,98954.56
2023-01-17T17:26:08.248Z,98953.06
2023-01-17T17:28:35.764Z,98959.94
2023-01-17T17:31:12.440Z,98961.81
2023-01-17T17:33:39.367Z,98964.44
2023-01-17T17:36:09.590Z,98967.91
2023-01-17T17:38:50.991Z,98965.34
2023-01-17T17:41:23.136Z,98969.72
2023-01-17T17:43:52.756Z,98973.34
2023-01-17T17:46:25.348Z,98977.84
2023-01-17T17:48:52.236Z,98976.94
2023-01-17T17:51:35.822Z,98989.78
2023-01-17T17:54:09.115Z,98990.66
2023-01-17T17:56:36.829Z,98999.28
2023-01-17T17:59:06.109Z,98996.59
2023-01-17T18:01:39.669Z,98996.59
2023-01-17T18:04:08.178Z,99000.13
2023-01-17T18:06:39.104Z,99006.31
2023-01-17T18:09:08.258Z,99010.81
2023-01-17T18:11:38.297Z,99014.41
2023-01-17T18:14:17.791Z,99015.41
2023-01-17T18:17:00.574Z,99023.22
2023-01-17T18:19:34.156Z,99027.31
2023-01-17T18:22:03.383Z,99024.75
2023-01-17T18:24:30.338Z,99036.06
2023-01-17T18:26:58.374Z,99034.38
2023-01-17T18:29:26.777Z,99038.91
2023-01-17T18:31:54.612Z,99047.34
2023-01-17T18:34:29.015Z,99046.59
2023-01-17T18:36:56.393Z,99054.22
2023-01-17T18:39:26.189Z,99059.34
2023-01-17T18:41:55.243Z,99057.56
2023-01-17T18:44:22.655Z,99067.84
2023-01-17T18:46:50.965Z,99064.56
2023-01-17T18:49:20.721Z,99065.59
2023-01-17T18:51:51.145Z,99071.91
2023-01-17T18:54:22.140Z,99072.91
2023-01-17T18:56:48.880Z,99069.72
2023-01-17T18:59:18.445Z,99078.31
2023-01-17T19:01:45.620Z,99069.59
2023-01-17T19:04:13.937Z,99070.34
2023-01-17T19:06:44.721Z,99067.91
2023-01-17T19:09:14.222Z,99073.03
2023-01-17T19:11:44.422Z,99075.56
2023-01-17T19:14:12.475Z,99078.19
2023-01-17T19:16:41.213Z,99077.34
2023-01-17T19:19:11.442Z,99083.31
2023-01-17T19:21:38.212Z,99082.56
2023-01-17T19:24:07.610Z,99088.44
2023-01-17T19:26:34.687Z,99085.13
2023-01-17T19:29:06.603Z,99087.69
2023-01-17T19:31:39.842Z,99084.41
2023-01-17T19:34:06.430Z,99089.56
2023-01-17T19:36:35.976Z,99094.59
2023-01-17T19:39:06.300Z,99095.63
2023-01-17T19:41:40.444Z,99091.53
2023-01-17T19:44:08.685Z,99097.56
2023-01-17T19:46:36.228Z,99094.97
2023-01-17T19:49:04.198Z,99100.91
2023-01-17T19:51:31.374Z,99102.44
2023-01-17T19:54:01.777Z,99099.63
2023-01-17T19:56:28.876Z,99106.28
2023-01-17T19:59:00.781Z,99098.59
2023-01-17T20:01:30.614Z,99106.41
2023-01-17T20:03:58.615Z,99102.19
2023-01-17T20:06:28.648Z,99103.97
2023-01-17T20:08:55.524Z,99112.56
2023-01-17T20:11:24.730Z,99103.25
2023-01-17T20:13:54.301Z,99107.50
2023-01-17T20:16:22.216Z,99107.56
2023-01-17T20:18:49.281Z,99109.25
2023-01-17T20:21:27.419Z,99106.72
2023-01-17T20:23:55.496Z,99099.16
2023-01-17T20:26:36.190Z,99107.75
2023-01-17T20:29:14.835Z,99110.47
2023-01-17T20:31:43.296Z,99111.41
2023-01-17T20:34:14.089Z,99108.97
2023-01-17T20:36:42.018Z,99113.16
2023-01-17T20:39:09.225Z,99108.09
2023-01-17T20:41:40.873Z,99106.34
2023-01-17T20:44:12.288Z,99102.97
2023-01-17T20:46:41.269Z,99107.97
2023-01-17T20:49:17.065Z,99106.16
2023-01-17T20:51:45.279Z,99111.16
2023-01-17T20:54:14.376Z,99113.81
2023-01-17T20:56:41.717Z,99121.50
2023-01-17T20:59:12.684Z,99117.44
2023-01-17T21:01:40.372Z,99115.84
2023-01-17T21:04:10.378Z,99121.09
2023-01-17T21:07:01.986Z,99113.50
2023-01-17T21:09:30.256Z,99116.16
2023-01-17T21:12:03.938Z,99121.22
2023-01-17T21:14:30.527Z,99118.59
2023-01-17T21:17:00.225Z,99122.00
2023-01-17T21:19:26.849Z,99128.78
2023-01-17T21:21:56.229Z,99128.75
2023-01-17T21:24:23.252Z,99124.59
2023-01-17T21:26:51.391Z,99134.13
2023-01-17T21:29:18.066Z,99134.13
2023-01-17T21:31:45.138Z,99138.41
2023-01-17T21:34:13.655Z,99132.44
2023-01-17T21:36:42.215Z,99135.06
2023-01-17T21:39:17.488Z,99132.63
2023-01-17T21:41:47.945Z,99135.38
2023-01-17T21:44:20.275Z,99130.25
2023-01-17T21:46:47.748Z,99130.25
2023-01-17T21:49:14.600Z,99130.16
2023-01-17T21:52:05.832Z,99128.63
2023-01-17T21:54:53.178Z,99132.25
2023-01-17T21:57:40.605Z,99126.50
2023-01-17T22:00:10.648Z,99129.09
2023-01-17T22:02:37.513Z,99133.41
2023-01-17T22:05:04.283Z,99137.78
2023-01-17T22:07:30.708Z,99136.16
2023-01-17T22:09:57.198Z,99136.22
2023-01-17T22:12:23.880Z,99137.09
2023-01-17T22:14:50.379Z,99140.56
2023-01-17T22:17:16.888Z,99146.72
2023-01-17T22:19:45.820Z,99151.19
2023-01-17T22:22:12.453Z,99156.53
2023-01-17T22:24:40.246Z,99150.66
2023-01-17T22:27:09.893Z,99153.34
2023-01-17T22:29:43.721Z,99157.03
2023-01-17T22:32:10.321Z,99160.56
2023-01-17T22:34:36.781Z,99162.38
2023-01-17T22:37:04.719Z,99158.97
2023-01-17T22:39:31.236Z,99163.31
2023-01-17T22:41:57.733Z,99171.06
2023-01-17T22:44:24.204Z,99170.31
2023-01-17T22:46:50.605Z,99169.47
2023-01-17T22:49:18.021Z,99169.59
2023-01-17T22:51:44.908Z,99171.41
2023-01-17T22:54:12.280Z,99171.41
2023-01-17T22:56:38.726Z,99168.16
2023-01-17T22:59:11.196Z,99169.97
2023-01-17T23:01:41.967Z,99167.44
2023-01-17T23:04:13.139Z,99164.88
2023-01-17T23:06:41.284Z,99163.25
2023-01-17T23:09:13.715Z,99167.72
2023-01-17T23:11:47.375Z,99159.53
2023-01-17T23:14:30.358Z,99162.38
2023-01-17T23:17:20.986Z,99167.53
2023-01-17T23:19:50.890Z,99163.47
2023-01-17T23:22:23.050Z,99168.75
2023-01-17T23:25:07.097Z,99173.00
2023-01-17T23:27:59.902Z,99161.56
2023-01-17T23:30:29.395Z,99161.66
2023-01-17T23:32:58.370Z,99161.25
2023-01-17T23:35:27.568Z,99164.53
2023-01-17T23:38:13.146Z,99162.91
2023-01-17T23:40:40.294Z,99169.69
2023-01-17T23:43:24.879Z,99169.22
2023-01-17T23:45:53.115Z,99171.88
2023-01-17T23:48:20.675Z,99178.03
2023-01-17T23:50:48.250Z,99174.69
2023-01-17T23:53:23.451Z,99175.56
2023-01-17T23:55:52.230Z,99182.44
2023-01-17T23:58:20.826Z,99180.81
